sensor_id;sensor_type;location;lat;lon;timestamp;temperature;humidity
7902;DHT22;3996;49.674;10.716;2023-01-16T00:00:54;3.20;55.80
7902;DHT22;3996;49.674;10.716;2023-01-16T00:03:20;3.10;55.90
7902;DHT22;3996;49.674;10.716;2023-01-16T00:05:46;3.20;55.90
7902;DHT22;3996;49.674;10.716;2023-01-16T00:08:12;3.10;55.30
7902;DHT22;3996;49.674;10.716;2023-01-16T00:10:38;3.30;54.80
7902;DHT22;3996;49.674;10.716;2023-01-16T00:13:04;3.20;54.00
7902;DHT22;3996;49.674;10.716;2023-01-16T00:15:30;3.00;53.90
7902;DHT22;3996;49.674;10.716;2023-01-16T00:17:55;3.00;55.50
7902;DHT22;3996;49.674;10.716;2023-01-16T00:20:21;3.10;54.60
7902;DHT22;3996;49.674;10.716;2023-01-16T00:22:47;3.10;54.50
7902;DHT22;3996;49.674;10.716;2023-01-16T00:25:12;3.10;54.10
7902;DHT22;3996;49.674;10.716;2023-01-16T00:27:38;3.10;54.70
7902;DHT22;3996;49.674;10.716;2023-01-16T00:30:05;3.00;53.70
7902;DHT22;3996;49.674;10.716;2023-01-16T00:32:31;3.00;54.70
7902;DHT22;3996;49.674;10.716;2023-01-16T00:34:57;3.00;54.00
7902;DHT22;3996;49.674;10.716;2023-01-16T00:37:22;3.00;54.60
7902;DHT22;3996;49.674;10.716;2023-01-16T00:39:48;3.00;53.80
7902;DHT22;3996;49.674;10.716;2023-01-16T00:42:14;2.90;53.80
7902;DHT22;3996;49.674;10.716;2023-01-16T00:44:40;3.00;54.40
7902;DHT22;3996;49.674;10.716;2023-01-16T00:47:06;3.00;54.20
7902;DHT22;3996;49.674;10.716;2023-01-16T00:49:31;2.90;53.70
7902;DHT22;3996;49.674;10.716;2023-01-16T00:51:57;2.90;54.10
7902;DHT22;3996;49.674;10.716;2023-01-16T00:54:22;2.80;54.00
7902;DHT22;3996;49.674;10.716;2023-01-16T00:56:48;2.70;54.10
7902;DHT22;3996;49.674;10.716;2023-01-16T00:59:13;2.70;54.50
7902;DHT22;3996;49.674;10.716;2023-01-16T01:01:39;2.60;55.90
7902;DHT22;3996;49.674;10.716;2023-01-16T01:04:05;2.50;56.30
7902;DHT22;3996;49.674;10.716;2023-01-16T01:06:30;2.40;56.30
7902;DHT22;3996;49.674;10.716;2023-01-16T01:08:56;2.60;55.90
7902;DHT22;3996;49.674;10.716;2023-01-16T01:11:22;2.50;54.80
7902;DHT22;3996;49.674;10.716;2023-01-16T01:13:48;2.50;56.20
7902;DHT22;3996;49.674;10.716;2023-01-16T01:16:14;2.50;54.70
7902;DHT22;3996;49.674;10.716;2023-01-16T01:18:40;2.50;55.40
7902;DHT22;3996;49.674;10.716;2023-01-16T01:21:06;2.50;57.50
7902;DHT22;3996;49.674;10.716;2023-01-16T01:23:32;2.60;57.30
7902;DHT22;3996;49.674;10.716;2023-01-16T01:25:58;2.50;58.70
7902;DHT22;3996;49.674;10.716;2023-01-16T01:28:24;2.70;58.70
7902;DHT22;3996;49.674;10.716;2023-01-16T01:30:49;2.70;58.30
7902;DHT22;3996;49.674;10.716;2023-01-16T01:33:15;2.60;59.60
7902;DHT22;3996;49.674;10.716;2023-01-16T01:35:40;2.70;58.50
7902;DHT22;3996;49.674;10.716;2023-01-16T01:38:06;2.70;59.20
7902;DHT22;3996;49.674;10.716;2023-01-16T01:40:33;2.70;59.00
7902;DHT22;3996;49.674;10.716;2023-01-16T01:42:58;2.80;58.10
7902;DHT22;3996;49.674;10.716;2023-01-16T01:45:26;2.80;56.00
7902;DHT22;3996;49.674;10.716;2023-01-16T01:53:20;2.90;55.40
7902;DHT22;3996;49.674;10.716;2023-01-16T01:55:47;2.90;54.90
7902;DHT22;3996;49.674;10.716;2023-01-16T01:58:16;3.00;55.40
7902;DHT22;3996;49.674;10.716;2023-01-16T02:00:48;3.00;53.60
7902;DHT22;3996;49.674;10.716;2023-01-16T02:03:21;3.10;53.90
7902;DHT22;3996;49.674;10.716;2023-01-16T02:05:54;3.10;53.70
7902;DHT22;3996;49.674;10.716;2023-01-16T02:08:22;3.20;53.00
7902;DHT22;3996;49.674;10.716;2023-01-16T02:10:53;3.20;52.70
7902;DHT22;3996;49.674;10.716;2023-01-16T02:13:21;3.30;52.80
7902;DHT22;3996;49.674;10.716;2023-01-16T02:15:46;3.30;52.20
7902;DHT22;3996;49.674;10.716;2023-01-16T02:18:31;3.30;51.90
7902;DHT22;3996;49.674;10.716;2023-01-16T02:24:26;3.50;51.00
7902;DHT22;3996;49.674;10.716;2023-01-16T02:29:53;3.50;51.40
7902;DHT22;3996;49.674;10.716;2023-01-16T02:38:19;3.40;51.40
7902;DHT22;3996;49.674;10.716;2023-01-16T02:46:32;3.60;50.70
7902;DHT22;3996;49.674;10.716;2023-01-16T02:52:15;3.60;49.80
7902;DHT22;3996;49.674;10.716;2023-01-16T02:54:56;3.60;50.20
7902;DHT22;3996;49.674;10.716;2023-01-16T02:57:27;3.60;49.50
7902;DHT22;3996;49.674;10.716;2023-01-16T02:59:55;3.70;50.10
7902;DHT22;3996;49.674;10.716;2023-01-16T03:02:21;3.70;50.10
7902;DHT22;3996;49.674;10.716;2023-01-16T03:04:48;3.70;49.70
7902;DHT22;3996;49.674;10.716;2023-01-16T03:23:55;3.80;48.90
7902;DHT22;3996;49.674;10.716;2023-01-16T03:26:31;3.90;48.90
7902;DHT22;3996;49.674;10.716;2023-01-16T03:31:52;3.90;48.50
7902;DHT22;3996;49.674;10.716;2023-01-16T03:34:45;3.80;48.50
7902;DHT22;3996;49.674;10.716;2023-01-16T03:37:33;3.80;49.40
7902;DHT22;3996;49.674;10.716;2023-01-16T03:40:08;3.80;49.10
7902;DHT22;3996;49.674;10.716;2023-01-16T03:42:44;3.80;48.90
7902;DHT22;3996;49.674;10.716;2023-01-16T03:45:16;3.80;49.10
7902;DHT22;3996;49.674;10.716;2023-01-16T03:47:49;3.80;48.50
7902;DHT22;3996;49.674;10.716;2023-01-16T03:50:21;3.80;49.00
7902;DHT22;3996;49.674;10.716;2023-01-16T03:52:51;3.80;49.10
7902;DHT22;3996;49.674;10.716;2023-01-16T03:55:45;3.80;47.80
7902;DHT22;3996;49.674;10.716;2023-01-16T03:58:26;3.90;47.30
7902;DHT22;3996;49.674;10.716;2023-01-16T04:02:01;3.90;47.60
7902;DHT22;3996;49.674;10.716;2023-01-16T04:04:11;3.90;47.60
7902;DHT22;3996;49.674;10.716;2023-01-16T04:06:57;3.90;48.30
7902;DHT22;3996;49.674;10.716;2023-01-16T04:12:45;3.80;47.70
7902;DHT22;3996;49.674;10.716;2023-01-16T04:15:13;3.80;48.10
7902;DHT22;3996;49.674;10.716;2023-01-16T04:17:41;3.70;48.70
7902;DHT22;3996;49.674;10.716;2023-01-16T04:20:08;3.70;48.90
7902;DHT22;3996;49.674;10.716;2023-01-16T04:22:34;3.60;48.90
7902;DHT22;3996;49.674;10.716;2023-01-16T04:25:03;3.60;48.90
7902;DHT22;3996;49.674;10.716;2023-01-16T04:27:29;3.60;48.80
7902;DHT22;3996;49.674;10.716;2023-01-16T04:29:55;3.50;48.50
7902;DHT22;3996;49.674;10.716;2023-01-16T04:32:21;3.50;49.40
7902;DHT22;3996;49.674;10.716;2023-01-16T04:34:46;3.40;48.90
7902;DHT22;3996;49.674;10.716;2023-01-16T04:37:14;3.40;49.00
7902;DHT22;3996;49.674;10.716;2023-01-16T04:39:40;3.40;48.70
7902;DHT22;3996;49.674;10.716;2023-01-16T04:42:09;3.40;49.10
7902;DHT22;3996;49.674;10.716;2023-01-16T04:44:34;3.40;48.90
7902;DHT22;3996;49.674;10.716;2023-01-16T04:47:00;3.30;49.00
7902;DHT22;3996;49.674;10.716;2023-01-16T04:49:26;3.30;49.20
7902;DHT22;3996;49.674;10.716;2023-01-16T04:51:51;3.20;48.80
7902;DHT22;3996;49.674;10.716;2023-01-16T04:54:18;3.20;48.50
7902;DHT22;3996;49.674;10.716;2023-01-16T04:56:44;3.20;48.90
7902;DHT22;3996;49.674;10.716;2023-01-16T04:59:10;3.10;48.50
7902;DHT22;3996;49.674;10.716;2023-01-16T05:01:38;3.10;49.00
7902;DHT22;3996;49.674;10.716;2023-01-16T05:04:06;3.10;49.40
7902;DHT22;3996;49.674;10.716;2023-01-16T05:06:32;3.10;49.20
7902;DHT22;3996;49.674;10.716;2023-01-16T05:08:58;3.10;49.60
7902;DHT22;3996;49.674;10.716;2023-01-16T05:11:24;3.10;49.50
7902;DHT22;3996;49.674;10.716;2023-01-16T05:13:50;3.00;50.50
7902;DHT22;3996;49.674;10.716;2023-01-16T05:16:15;2.90;49.80
7902;DHT22;3996;49.674;10.716;2023-01-16T05:18:41;2.70;50.70
7902;DHT22;3996;49.674;10.716;2023-01-16T05:21:06;2.60;51.60
7902;DHT22;3996;49.674;10.716;2023-01-16T05:23:32;2.60;51.40
7902;DHT22;3996;49.674;10.716;2023-01-16T05:25:59;2.60;52.00
7902;DHT22;3996;49.674;10.716;2023-01-16T05:28:25;2.60;51.50
7902;DHT22;3996;49.674;10.716;2023-01-16T05:30:50;2.40;51.60
7902;DHT22;3996;49.674;10.716;2023-01-16T05:33:16;2.40;52.90
7902;DHT22;3996;49.674;10.716;2023-01-16T05:35:42;2.30;52.90
7902;DHT22;3996;49.674;10.716;2023-01-16T05:38:08;2.30;52.60
7902;DHT22;3996;49.674;10.716;2023-01-16T05:40:33;2.30;52.00
7902;DHT22;3996;49.674;10.716;2023-01-16T05:42:59;2.30;52.00
7902;DHT22;3996;49.674;10.716;2023-01-16T05:45:25;2.30;51.90
7902;DHT22;3996;49.674;10.716;2023-01-16T05:47:50;2.20;52.70
7902;DHT22;3996;49.674;10.716;2023-01-16T05:50:16;2.10;52.30
7902;DHT22;3996;49.674;10.716;2023-01-16T05:52:42;2.10;53.10
7902;DHT22;3996;49.674;10.716;2023-01-16T05:55:08;2.10;53.10
7902;DHT22;3996;49.674;10.716;2023-01-16T05:57:33;2.10;52.90
7902;DHT22;3996;49.674;10.716;2023-01-16T05:59:59;2.10;52.70
7902;DHT22;3996;49.674;10.716;2023-01-16T06:02:24;2.00;53.70
7902;DHT22;3996;49.674;10.716;2023-01-16T06:04:50;2.00;54.50
7902;DHT22;3996;49.674;10.716;2023-01-16T06:07:17;2.00;54.90
7902;DHT22;3996;49.674;10.716;2023-01-16T06:09:42;2.00;54.50
7902;DHT22;3996;49.674;10.716;2023-01-16T06:12:15;2.10;54.50
7902;DHT22;3996;49.674;10.716;2023-01-16T06:14:42;1.90;54.30
7902;DHT22;3996;49.674;10.716;2023-01-16T06:17:07;1.90;54.40
7902;DHT22;3996;49.674;10.716;2023-01-16T06:19:33;1.80;55.60
7902;DHT22;3996;49.674;10.716;2023-01-16T06:21:58;1.80;55.60
7902;DHT22;3996;49.674;10.716;2023-01-16T06:24:24;1.80;55.90
7902;DHT22;3996;49.674;10.716;2023-01-16T06:26:49;1.80;55.60
7902;DHT22;3996;49.674;10.716;2023-01-16T06:29:15;1.70;54.80
7902;DHT22;3996;49.674;10.716;2023-01-16T06:31:41;1.60;54.80
7902;DHT22;3996;49.674;10.716;2023-01-16T06:34:06;1.50;57.00
7902;DHT22;3996;49.674;10.716;2023-01-16T06:36:32;1.50;58.10
7902;DHT22;3996;49.674;10.716;2023-01-16T06:38:57;1.60;56.70
7902;DHT22;3996;49.674;10.716;2023-01-16T06:41:23;1.50;57.00
7902;DHT22;3996;49.674;10.716;2023-01-16T06:43:48;1.50;56.20
7902;DHT22;3996;49.674;10.716;2023-01-16T06:46:14;1.50;56.10
7902;DHT22;3996;49.674;10.716;2023-01-16T06:48:40;1.50;55.70
7902;DHT22;3996;49.674;10.716;2023-01-16T06:51:07;1.60;56.10
7902;DHT22;3996;49.674;10.716;2023-01-16T06:53:33;1.70;56.50
7902;DHT22;3996;49.674;10.716;2023-01-16T06:55:58;1.70;54.90
7902;DHT22;3996;49.674;10.716;2023-01-16T06:58:24;1.70;54.80
7902;DHT22;3996;49.674;10.716;2023-01-16T07:00:49;1.60;55.80
7902;DHT22;3996;49.674;10.716;2023-01-16T07:03:16;1.70;55.60
7902;DHT22;3996;49.674;10.716;2023-01-16T07:05:43;1.70;54.40
7902;DHT22;3996;49.674;10.716;2023-01-16T07:08:09;1.70;54.90
7902;DHT22;3996;49.674;10.716;2023-01-16T07:10:35;1.60;55.00
7902;DHT22;3996;49.674;10.716;2023-01-16T07:13:01;1.60;55.50
7902;DHT22;3996;49.674;10.716;2023-01-16T07:15:26;1.60;55.50
7902;DHT22;3996;49.674;10.716;2023-01-16T07:18:15;1.60;54.50
7902;DHT22;3996;49.674;10.716;2023-01-16T07:21:02;1.50;55.10
7902;DHT22;3996;49.674;10.716;2023-01-16T07:23:54;1.50;55.50
7902;DHT22;3996;49.674;10.716;2023-01-16T07:26:21;1.50;55.70
7902;DHT22;3996;49.674;10.716;2023-01-16T07:28:49;1.60;55.10
7902;DHT22;3996;49.674;10.716;2023-01-16T07:31:15;1.70;54.50
7902;DHT22;3996;49.674;10.716;2023-01-16T07:33:41;1.80;53.40
7902;DHT22;3996;49.674;10.716;2023-01-16T07:36:07;1.80;53.00
7902;DHT22;3996;49.674;10.716;2023-01-16T07:38:32;1.80;53.30
7902;DHT22;3996;49.674;10.716;2023-01-16T07:40:58;1.90;53.40
7902;DHT22;3996;49.674;10.716;2023-01-16T07:43:23;1.90;53.20
7902;DHT22;3996;49.674;10.716;2023-01-16T07:45:49;1.90;53.10
7902;DHT22;3996;49.674;10.716;2023-01-16T07:48:24;1.90;53.90
7902;DHT22;3996;49.674;10.716;2023-01-16T07:50:54;2.00;53.00
7902;DHT22;3996;49.674;10.716;2023-01-16T07:53:21;2.00;52.20
7902;DHT22;3996;49.674;10.716;2023-01-16T07:55:53;2.20;51.80
7902;DHT22;3996;49.674;10.716;2023-01-16T07:58:19;2.40;50.70
7902;DHT22;3996;49.674;10.716;2023-01-16T08:00:46;3.10;48.50
7902;DHT22;3996;49.674;10.716;2023-01-16T08:03:12;3.20;46.90
7902;DHT22;3996;49.674;10.716;2023-01-16T08:05:41;3.30;45.80
7902;DHT22;3996;49.674;10.716;2023-01-16T08:08:09;3.10;46.10
7902;DHT22;3996;49.674;10.716;2023-01-16T08:10:34;2.90;46.90
7902;DHT22;3996;49.674;10.716;2023-01-16T08:13:00;3.00;46.30
7902;DHT22;3996;49.674;10.716;2023-01-16T08:15:26;2.80;47.30
7902;DHT22;3996;49.674;10.716;2023-01-16T08:17:51;2.70;47.70
7902;DHT22;3996;49.674;10.716;2023-01-16T08:20:17;3.80;45.70
7902;DHT22;3996;49.674;10.716;2023-01-16T08:22:44;4.20;42.00
7902;DHT22;3996;49.674;10.716;2023-01-16T08:25:10;4.20;41.90
7902;DHT22;3996;49.674;10.716;2023-01-16T08:27:36;4.20;42.00
7902;DHT22;3996;49.674;10.716;2023-01-16T08:30:02;4.50;41.00
7902;DHT22;3996;49.674;10.716;2023-01-16T08:32:27;4.10;41.00
7902;DHT22;3996;49.674;10.716;2023-01-16T08:34:53;4.10;41.80
7902;DHT22;3996;49.674;10.716;2023-01-16T08:37:18;4.00;41.30
7902;DHT22;3996;49.674;10.716;2023-01-16T08:39:44;4.10;42.00
7902;DHT22;3996;49.674;10.716;2023-01-16T08:42:09;3.80;42.00
7902;DHT22;3996;49.674;10.716;2023-01-16T08:44:53;3.50;43.20
7902;DHT22;3996;49.674;10.716;2023-01-16T08:47:38;3.80;44.00
7902;DHT22;3996;49.674;10.716;2023-01-16T08:50:22;3.80;42.00
7902;DHT22;3996;49.674;10.716;2023-01-16T08:53:09;4.30;42.70
7902;DHT22;3996;49.674;10.716;2023-01-16T08:55:35;4.60;41.10
7902;DHT22;3996;49.674;10.716;2023-01-16T08:58:00;4.60;38.70
7902;DHT22;3996;49.674;10.716;2023-01-16T09:00:28;4.30;40.20
7902;DHT22;3996;49.674;10.716;2023-01-16T09:02:55;4.00;40.70
7902;DHT22;3996;49.674;10.716;2023-01-16T09:05:23;3.70;41.30
7902;DHT22;3996;49.674;10.716;2023-01-16T09:07:49;3.60;42.30
7902;DHT22;3996;49.674;10.716;2023-01-16T09:10:15;3.70;42.80
7902;DHT22;3996;49.674;10.716;2023-01-16T09:12:40;3.90;42.60
7902;DHT22;3996;49.674;10.716;2023-01-16T09:15:41;4.40;41.60
7902;DHT22;3996;49.674;10.716;2023-01-16T09:18:07;4.50;40.30
7902;DHT22;3996;49.674;10.716;2023-01-16T09:20:33;4.60;40.10
7902;DHT22;3996;49.674;10.716;2023-01-16T09:23:00;4.80;38.50
7902;DHT22;3996;49.674;10.716;2023-01-16T09:25:27;5.50;38.10
7902;DHT22;3996;49.674;10.716;2023-01-16T09:27:53;5.50;36.00
7902;DHT22;3996;49.674;10.716;2023-01-16T09:30:19;5.50;35.10
7902;DHT22;3996;49.674;10.716;2023-01-16T09:32:45;5.40;35.60
7902;DHT22;3996;49.674;10.716;2023-01-16T09:35:12;5.90;35.40
7902;DHT22;3996;49.674;10.716;2023-01-16T09:37:38;6.00;34.80
7902;DHT22;3996;49.674;10.716;2023-01-16T09:40:08;5.70;35.10
7902;DHT22;3996;49.674;10.716;2023-01-16T09:45:25;5.70;36.10
7902;DHT22;3996;49.674;10.716;2023-01-16T09:47:55;6.00;35.00
7902;DHT22;3996;49.674;10.716;2023-01-16T09:53:00;5.20;35.20
7902;DHT22;3996;49.674;10.716;2023-01-16T09:55:47;4.80;36.70
7902;DHT22;3996;49.674;10.716;2023-01-16T09:58:32;4.50;38.30
7902;DHT22;3996;49.674;10.716;2023-01-16T10:03:30;7.20;32.60
7902;DHT22;3996;49.674;10.716;2023-01-16T10:06:03;7.40;30.30
7902;DHT22;3996;49.674;10.716;2023-01-16T10:11:31;8.30;28.90
7902;DHT22;3996;49.674;10.716;2023-01-16T10:30:20;11.00;21.00
7902;DHT22;3996;49.674;10.716;2023-01-16T10:35:38;8.60;24.80
7902;DHT22;3996;49.674;10.716;2023-01-16T10:47:10;6.00;33.30
7902;DHT22;3996;49.674;10.716;2023-01-16T10:49:55;5.90;34.20
7902;DHT22;3996;49.674;10.716;2023-01-16T10:52:21;5.90;34.10
7902;DHT22;3996;49.674;10.716;2023-01-16T10:54:47;5.80;34.10
7902;DHT22;3996;49.674;10.716;2023-01-16T10:57:18;5.80;34.00
7902;DHT22;3996;49.674;10.716;2023-01-16T10:59:44;5.90;33.90
7902;DHT22;3996;49.674;10.716;2023-01-16T11:02:39;6.20;33.10
7902;DHT22;3996;49.674;10.716;2023-01-16T11:05:22;6.70;33.40
7902;DHT22;3996;49.674;10.716;2023-01-16T11:07:48;7.30;30.20
7902;DHT22;3996;49.674;10.716;2023-01-16T11:10:16;7.40;30.90
7902;DHT22;3996;49.674;10.716;2023-01-16T11:12:42;7.30;29.10
7902;DHT22;3996;49.674;10.716;2023-01-16T11:15:26;7.10;31.20
7902;DHT22;3996;49.674;10.716;2023-01-16T11:18:40;7.20;30.20
7902;DHT22;3996;49.674;10.716;2023-01-16T11:23:59;7.50;29.00
7902;DHT22;3996;49.674;10.716;2023-01-16T11:26:25;7.70;28.00
7902;DHT22;3996;49.674;10.716;2023-01-16T11:28:53;7.50;27.00
7902;DHT22;3996;49.674;10.716;2023-01-16T11:31:27;7.20;26.30
7902;DHT22;3996;49.674;10.716;2023-01-16T11:34:03;7.00;28.60
7902;DHT22;3996;49.674;10.716;2023-01-16T11:36:35;6.70;28.10
7902;DHT22;3996;49.674;10.716;2023-01-16T11:39:03;6.50;29.70
7902;DHT22;3996;49.674;10.716;2023-01-16T11:41:35;6.40;29.60
7902;DHT22;3996;49.674;10.716;2023-01-16T11:44:13;6.30;28.90
7902;DHT22;3996;49.674;10.716;2023-01-16T11:46:59;6.30;29.40
7902;DHT22;3996;49.674;10.716;2023-01-16T11:49:33;6.20;28.90
7902;DHT22;3996;49.674;10.716;2023-01-16T11:52:00;6.20;29.50
7902;DHT22;3996;49.674;10.716;2023-01-16T11:54:31;6.10;29.60
7902;DHT22;3996;49.674;10.716;2023-01-16T12:05:41;6.10;28.00
7902;DHT22;3996;49.674;10.716;2023-01-16T12:11:32;6.00;27.30
7902;DHT22;3996;49.674;10.716;2023-01-16T12:33:40;6.00;28.20
7902;DHT22;3996;49.674;10.716;2023-01-16T12:39:18;6.00;28.00
7902;DHT22;3996;49.674;10.716;2023-01-16T12:50:14;6.00;28.90
7902;DHT22;3996;49.674;10.716;2023-01-16T12:58:38;6.00;28.80
7902;DHT22;3996;49.674;10.716;2023-01-16T13:01:30;6.00;28.60
7902;DHT22;3996;49.674;10.716;2023-01-16T13:04:14;6.00;28.90
7902;DHT22;3996;49.674;10.716;2023-01-16T13:06:53;6.00;29.40
7902;DHT22;3996;49.674;10.716;2023-01-16T13:15:26;6.00;29.60
7902;DHT22;3996;49.674;10.716;2023-01-16T13:17:58;6.00;30.20
7902;DHT22;3996;49.674;10.716;2023-01-16T13:20:27;5.90;30.00
7902;DHT22;3996;49.674;10.716;2023-01-16T13:23:06;6.00;30.50
7902;DHT22;3996;49.674;10.716;2023-01-16T13:25:40;5.90;30.00
7902;DHT22;3996;49.674;10.716;2023-01-16T13:28:17;5.90;29.80
7902;DHT22;3996;49.674;10.716;2023-01-16T13:30:44;5.90;30.00
7902;DHT22;3996;49.674;10.716;2023-01-16T13:33:18;5.80;29.70
7902;DHT22;3996;49.674;10.716;2023-01-16T13:36:03;5.80;31.00
7902;DHT22;3996;49.674;10.716;2023-01-16T13:38:42;5.80;30.40
7902;DHT22;3996;49.674;10.716;2023-01-16T13:43:48;5.80;30.60
7902;DHT22;3996;49.674;10.716;2023-01-16T13:46:34;5.80;30.90
7902;DHT22;3996;49.674;10.716;2023-01-16T13:49:02;5.70;30.40
7902;DHT22;3996;49.674;10.716;2023-01-16T13:51:29;5.70;30.00
7902;DHT22;3996;49.674;10.716;2023-01-16T13:54:00;5.60;34.30
7902;DHT22;3996;49.674;10.716;2023-01-16T13:56:31;5.20;38.80
7902;DHT22;3996;49.674;10.716;2023-01-16T13:59:24;5.00;43.40
7902;DHT22;3996;49.674;10.716;2023-01-16T14:01:54;4.80;46.40
7902;DHT22;3996;49.674;10.716;2023-01-16T14:04:25;4.70;48.90
7902;DHT22;3996;49.674;10.716;2023-01-16T14:06:58;4.60;50.30
7902;DHT22;3996;49.674;10.716;2023-01-16T14:10:15;4.50;52.30
7902;DHT22;3996;49.674;10.716;2023-01-16T14:12:58;4.50;53.60
7902;DHT22;3996;49.674;10.716;2023-01-16T14:15:25;4.40;53.80
7902;DHT22;3996;49.674;10.716;2023-01-16T14:18:18;4.40;53.80
7902;DHT22;3996;49.674;10.716;2023-01-16T14:26:01;4.40;51.80
7902;DHT22;3996;49.674;10.716;2023-01-16T14:28:29;4.30;51.50
7902;DHT22;3996;49.674;10.716;2023-01-16T14:30:54;4.40;50.30
7902;DHT22;3996;49.674;10.716;2023-01-16T14:33:21;4.50;49.70
7902;DHT22;3996;49.674;10.716;2023-01-16T14:35:51;4.60;50.20
7902;DHT22;3996;49.674;10.716;2023-01-16T14:38:20;4.60;49.50
7902;DHT22;3996;49.674;10.716;2023-01-16T14:41:03;4.60;49.60
7902;DHT22;3996;49.674;10.716;2023-01-16T14:47:09;4.80;49.10
7902;DHT22;3996;49.674;10.716;2023-01-16T14:50:12;4.80;48.40
7902;DHT22;3996;49.674;10.716;2023-01-16T14:56:15;4.80;49.40
7902;DHT22;3996;49.674;10.716;2023-01-16T14:58:48;4.90;48.60
7902;DHT22;3996;49.674;10.716;2023-01-16T15:01:27;4.90;48.70
7902;DHT22;3996;49.674;10.716;2023-01-16T15:04:13;5.00;48.90
7902;DHT22;3996;49.674;10.716;2023-01-16T15:06:44;5.00;47.90
7902;DHT22;3996;49.674;10.716;2023-01-16T15:09:19;5.00;48.50
7902;DHT22;3996;49.674;10.716;2023-01-16T15:12:01;5.00;48.70
7902;DHT22;3996;49.674;10.716;2023-01-16T15:14:27;5.20;51.70
7902;DHT22;3996;49.674;10.716;2023-01-16T15:17:02;5.20;48.00
7902;DHT22;3996;49.674;10.716;2023-01-16T15:20:24;5.10;48.00
7902;DHT22;3996;49.674;10.716;2023-01-16T15:23:31;5.10;48.30
7902;DHT22;3996;49.674;10.716;2023-01-16T15:28:40;5.10;46.10
7902;DHT22;3996;49.674;10.716;2023-01-16T15:31:21;5.20;45.50
7902;DHT22;3996;49.674;10.716;2023-01-16T15:34:05;5.30;43.80
7902;DHT22;3996;49.674;10.716;2023-01-16T15:36:43;5.30;43.60
7902;DHT22;3996;49.674;10.716;2023-01-16T15:41:46;5.50;40.80
7902;DHT22;3996;49.674;10.716;2023-01-16T15:44:31;5.50;39.90
7902;DHT22;3996;49.674;10.716;2023-01-16T15:52:37;5.60;38.60
7902;DHT22;3996;49.674;10.716;2023-01-16T15:57:36;5.50;38.00
7902;DHT22;3996;49.674;10.716;2023-01-16T16:00:02;5.50;37.00
7902;DHT22;3996;49.674;10.716;2023-01-16T16:02:30;5.60;36.60
7902;DHT22;3996;49.674;10.716;2023-01-16T16:04:59;5.60;36.00
7902;DHT22;3996;49.674;10.716;2023-01-16T16:07:27;5.60;35.20
7902;DHT22;3996;49.674;10.716;2023-01-16T16:09:56;5.60;35.30
7902;DHT22;3996;49.674;10.716;2023-01-16T16:12:23;5.60;34.90
7902;DHT22;3996;49.674;10.716;2023-01-16T16:15:18;5.50;35.10
7902;DHT22;3996;49.674;10.716;2023-01-16T16:18:13;5.50;34.50
7902;DHT22;3996;49.674;10.716;2023-01-16T16:20:42;5.60;34.30
7902;DHT22;3996;49.674;10.716;2023-01-16T16:23:15;5.60;34.10
7902;DHT22;3996;49.674;10.716;2023-01-16T16:25:58;5.50;33.60
7902;DHT22;3996;49.674;10.716;2023-01-16T16:28:44;5.60;34.10
7902;DHT22;3996;49.674;10.716;2023-01-16T16:31:16;5.50;34.10
7902;DHT22;3996;49.674;10.716;2023-01-16T16:33:56;5.50;34.00
7902;DHT22;3996;49.674;10.716;2023-01-16T16:36:21;5.50;33.70
7902;DHT22;3996;49.674;10.716;2023-01-16T16:38:49;5.50;35.10
7902;DHT22;3996;49.674;10.716;2023-01-16T16:43:47;5.50;34.00
7902;DHT22;3996;49.674;10.716;2023-01-16T16:51:47;5.40;33.90
7902;DHT22;3996;49.674;10.716;2023-01-16T16:54:14;5.30;34.10
7902;DHT22;3996;49.674;10.716;2023-01-16T16:56:50;5.30;34.40
7902;DHT22;3996;49.674;10.716;2023-01-16T16:59:24;5.30;34.30
7902;DHT22;3996;49.674;10.716;2023-01-16T17:01:53;5.30;34.20
7902;DHT22;3996;49.674;10.716;2023-01-16T17:04:21;5.30;34.60
7902;DHT22;3996;49.674;10.716;2023-01-16T17:06:47;5.20;34.80
7902;DHT22;3996;49.674;10.716;2023-01-16T17:09:16;5.20;34.50
7902;DHT22;3996;49.674;10.716;2023-01-16T17:11:43;5.20;34.50
7902;DHT22;3996;49.674;10.716;2023-01-16T17:14:09;5.10;35.00
7902;DHT22;3996;49.674;10.716;2023-01-16T17:16:35;5.10;35.10
7902;DHT22;3996;49.674;10.716;2023-01-16T17:19:29;5.10;35.20
7902;DHT22;3996;49.674;10.716;2023-01-16T17:21:55;5.00;35.60
7902;DHT22;3996;49.674;10.716;2023-01-16T17:24:20;5.10;35.30
7902;DHT22;3996;49.674;10.716;2023-01-16T17:26:47;5.10;34.90
7902;DHT22;3996;49.674;10.716;2023-01-16T17:29:13;5.10;36.20
7902;DHT22;3996;49.674;10.716;2023-01-16T17:31:41;5.20;38.00
7902;DHT22;3996;49.674;10.716;2023-01-16T17:34:15;5.20;37.30
7902;DHT22;3996;49.674;10.716;2023-01-16T17:36:41;5.30;37.30
7902;DHT22;3996;49.674;10.716;2023-01-16T17:39:07;5.30;36.30
7902;DHT22;3996;49.674;10.716;2023-01-16T17:41:35;5.40;36.70
7902;DHT22;3996;49.674;10.716;2023-01-16T17:44:22;5.50;36.40
7902;DHT22;3996;49.674;10.716;2023-01-16T17:47:07;5.40;35.20
7902;DHT22;3996;49.674;10.716;2023-01-16T17:49:33;5.30;35.20
7902;DHT22;3996;49.674;10.716;2023-01-16T17:52:22;5.30;35.30
7902;DHT22;3996;49.674;10.716;2023-01-16T17:54:47;5.20;35.40
7902;DHT22;3996;49.674;10.716;2023-01-16T17:57:31;5.20;36.10
7902;DHT22;3996;49.674;10.716;2023-01-16T17:59:58;5.20;35.40
7902;DHT22;3996;49.674;10.716;2023-01-16T18:02:24;5.30;35.10
7902;DHT22;3996;49.674;10.716;2023-01-16T18:04:49;5.30;35.70
7902;DHT22;3996;49.674;10.716;2023-01-16T18:07:16;5.20;36.00
7902;DHT22;3996;49.674;10.716;2023-01-16T18:09:41;5.20;35.50
7902;DHT22;3996;49.674;10.716;2023-01-16T18:12:09;5.30;35.80
7902;DHT22;3996;49.674;10.716;2023-01-16T18:14:54;5.40;35.90
7902;DHT22;3996;49.674;10.716;2023-01-16T18:17:38;5.40;36.70
7902;DHT22;3996;49.674;10.716;2023-01-16T18:20:04;5.40;36.00
7902;DHT22;3996;49.674;10.716;2023-01-16T18:22:34;5.40;36.50
7902;DHT22;3996;49.674;10.716;2023-01-16T18:25:00;5.40;36.40
7902;DHT22;3996;49.674;10.716;2023-01-16T18:27:26;5.50;36.80
7902;DHT22;3996;49.674;10.716;2023-01-16T18:29:52;5.50;37.40
7902;DHT22;3996;49.674;10.716;2023-01-16T18:32:18;5.40;37.50
7902;DHT22;3996;49.674;10.716;2023-01-16T18:35:05;5.50;37.60
7902;DHT22;3996;49.674;10.716;2023-01-16T18:37:40;5.50;37.60
7902;DHT22;3996;49.674;10.716;2023-01-16T18:40:10;5.50;37.60
7902;DHT22;3996;49.674;10.716;2023-01-16T18:42:55;5.60;38.10
7902;DHT22;3996;49.674;10.716;2023-01-16T18:45:40;5.60;38.30
7902;DHT22;3996;49.674;10.716;2023-01-16T18:48:25;5.50;38.50
7902;DHT22;3996;49.674;10.716;2023-01-16T18:51:15;5.50;38.90
7902;DHT22;3996;49.674;10.716;2023-01-16T18:54:00;5.50;38.90
7902;DHT22;3996;49.674;10.716;2023-01-16T18:56:53;5.50;39.20
7902;DHT22;3996;49.674;10.716;2023-01-16T18:59:39;5.40;39.30
7902;DHT22;3996;49.674;10.716;2023-01-16T19:04:53;5.40;39.80
7902;DHT22;3996;49.674;10.716;2023-01-16T19:07:21;5.40;39.90
7902;DHT22;3996;49.674;10.716;2023-01-16T19:09:52;5.40;39.80
7902;DHT22;3996;49.674;10.716;2023-01-16T19:12:24;5.40;40.10
7902;DHT22;3996;49.674;10.716;2023-01-16T19:14:51;5.40;40.50
7902;DHT22;3996;49.674;10.716;2023-01-16T19:17:17;5.40;41.00
7902;DHT22;3996;49.674;10.716;2023-01-16T19:19:42;5.40;41.00
7902;DHT22;3996;49.674;10.716;2023-01-16T19:22:09;5.50;41.20
7902;DHT22;3996;49.674;10.716;2023-01-16T19:24:35;5.50;41.20
7902;DHT22;3996;49.674;10.716;2023-01-16T19:27:02;5.60;41.10
7902;DHT22;3996;49.674;10.716;2023-01-16T19:29:28;5.60;41.40
7902;DHT22;3996;49.674;10.716;2023-01-16T19:31:56;5.70;41.60